createdAt,value
2018-03-24T00:01:55.991Z,78.90
2018-03-24T00:04:25.025Z,79.10
2018-03-24T00:06:53.339Z,79.00
2018-03-24T00:09:23.116Z,78.80
2018-03-24T00:11:51.379Z,78.70
2018-03-24T00:14:19.632Z,78.70
2018-03-24T00:16:47.925Z,78.50
2018-03-24T00:19:16.217Z,78.70
2018-03-24T00:21:44.539Z,78.70
2018-03-24T00:24:12.792Z,79.50
2018-03-24T00:26:41.056Z,78.30
2018-03-24T00:29:09.326Z,78.50
2018-03-24T00:31:37.575Z,78.70
2018-03-24T00:34:06.480Z,79.20
2018-03-24T00:36:34.743Z,78.50
2018-03-24T00:39:03.015Z,78.70
2018-03-24T00:41:31.300Z,78.50
2018-03-24T00:43:59.579Z,78.60
2018-03-24T00:46:27.819Z,78.60
2018-03-24T00:48:56.847Z,79.10
2018-03-24T00:51:25.114Z,78.20
2018-03-24T00:53:53.387Z,78.20
2018-03-24T00:56:21.642Z,78.20
2018-03-24T00:58:49.956Z,78.00
2018-03-24T01:01:18.207Z,78.00
2018-03-24T01:03:46.467Z,77.70
2018-03-24T01:06:14.762Z,77.90
2018-03-24T01:08:43.040Z,77.90
2018-03-24T01:11:11.416Z,77.90
2018-03-24T01:13:39.678Z,77.90
2018-03-24T01:16:07.998Z,77.80
2018-03-24T01:18:36.959Z,77.40
2018-03-24T01:21:05.221Z,77.30
2018-03-24T01:23:33.592Z,77.40
2018-03-24T01:26:01.867Z,77.60
2018-03-24T01:28:30.131Z,77.70
2018-03-24T01:30:59.300Z,77.60
2018-03-24T01:33:27.550Z,77.60
2018-03-24T01:35:55.960Z,77.60
2018-03-24T01:38:24.190Z,77.40
2018-03-24T01:40:52.449Z,77.30
2018-03-24T01:43:20.775Z,77.00
2018-03-24T01:45:49.052Z,77.90
2018-03-24T01:48:17.339Z,77.40
2018-03-24T01:50:45.590Z,77.50
2018-03-24T01:53:13.864Z,77.50
2018-03-24T01:55:42.163Z,77.40
2018-03-24T01:58:10.435Z,77.30
2018-03-24T02:00:38.684Z,77.20
2018-03-24T02:03:06.965Z,77.10
2018-03-24T02:05:35.317Z,76.80
2018-03-24T02:08:03.583Z,76.80
2018-03-24T02:10:31.836Z,76.60
2018-03-24T02:13:00.872Z,77.00
2018-03-24T02:15:29.120Z,77.00
2018-03-24T02:17:57.412Z,77.00
2018-03-24T02:20:25.655Z,76.80
2018-03-24T02:22:53.930Z,77.10
2018-03-24T02:25:22.221Z,77.10
2018-03-24T02:27:51.254Z,77.20
2018-03-24T02:30:19.515Z,77.10
2018-03-24T02:32:47.799Z,77.40
2018-03-24T02:35:16.052Z,77.30
2018-03-24T02:37:44.316Z,77.30
2018-03-24T02:40:12.588Z,77.10
2018-03-24T02:42:40.852Z,77.30
2018-03-24T02:45:09.141Z,77.30
2018-03-24T02:47:37.411Z,77.40
2018-03-24T02:50:05.695Z,77.60
2018-03-24T02:52:33.952Z,77.20
2018-03-24T02:55:02.349Z,77.10
2018-03-24T02:57:30.592Z,77.30
2018-03-24T02:59:58.851Z,77.70
2018-03-24T03:02:27.872Z,78.30
2018-03-24T03:04:56.155Z,78.20
2018-03-24T03:07:24.411Z,78.20
2018-03-24T03:09:52.681Z,78.40
2018-03-24T03:12:20.935Z,78.60
2018-03-24T03:14:49.976Z,80.00
2018-03-24T03:17:18.235Z,79.30
2018-03-24T03:19:46.516Z,79.50
2018-03-24T03:22:14.771Z,79.50
2018-03-24T03:24:43.799Z,79.20
2018-03-24T03:27:12.220Z,79.10
2018-03-24T03:29:41.256Z,79.30
2018-03-24T03:32:09.508Z,78.60
2018-03-24T03:34:38.593Z,78.50
2018-03-24T03:37:06.824Z,78.50
2018-03-24T03:39:35.116Z,78.60
2018-03-24T03:42:03.407Z,78.40
2018-03-24T03:44:31.838Z,78.50
2018-03-24T03:47:00.255Z,78.70
2018-03-24T03:49:28.548Z,79.00
2018-03-24T03:51:57.596Z,80.30
2018-03-24T03:54:25.898Z,79.40
2018-03-24T03:56:54.139Z,79.90
2018-03-24T03:59:22.463Z,80.00
2018-03-24T04:01:52.230Z,80.70
2018-03-24T04:04:20.474Z,80.60
2018-03-24T04:06:48.800Z,80.80
2018-03-24T04:09:17.123Z,81.20
2018-03-24T04:11:45.375Z,81.50
2018-03-24T04:14:14.405Z,82.10
2018-03-24T04:16:42.676Z,82.00
2018-03-24T04:19:11.096Z,82.40
2018-03-24T04:21:39.371Z,82.60
2018-03-24T04:24:07.644Z,82.70
2018-03-24T04:26:35.958Z,83.00
2018-03-24T04:29:05.096Z,83.10
2018-03-24T04:31:33.388Z,83.00
2018-03-24T04:34:01.671Z,83.40
2018-03-24T04:36:29.956Z,83.60
2018-03-24T04:38:59.788Z,84.10
2018-03-24T04:41:28.833Z,84.40
2018-03-24T04:43:57.100Z,84.20
2018-03-24T04:46:25.366Z,84.60
2018-03-24T04:48:53.613Z,84.80
2018-03-24T04:51:21.918Z,85.00
2018-03-24T04:53:50.207Z,85.00
2018-03-24T04:56:18.754Z,85.00
2018-03-24T04:58:47.109Z,85.20
2018-03-24T05:01:16.141Z,85.60
2018-03-24T05:03:44.379Z,85.50
2018-03-24T05:06:13.436Z,85.70
2018-03-24T05:08:41.691Z,85.60
2018-03-24T05:11:10.103Z,85.60
2018-03-24T05:13:38.363Z,85.70
2018-03-24T05:16:06.631Z,85.90
2018-03-24T05:18:34.887Z,85.90
2018-03-24T05:21:03.148Z,85.90
2018-03-24T05:23:31.415Z,85.80
2018-03-24T05:25:59.684Z,86.00
2018-03-24T05:28:28.035Z,86.20
2018-03-24T05:30:56.440Z,86.10
2018-03-24T05:33:24.709Z,85.90
2018-03-24T05:35:53.739Z,86.40
2018-03-24T05:38:22.007Z,86.20
2018-03-24T05:40:50.300Z,86.30
2018-03-24T05:43:18.573Z,86.10
2018-03-24T05:45:46.819Z,85.90
2018-03-24T05:48:15.119Z,85.70
2018-03-24T05:50:43.383Z,85.90
2018-03-24T05:53:11.631Z,85.60
2018-03-24T05:55:39.915Z,85.70
2018-03-24T05:58:08.182Z,85.50
2018-03-24T06:00:36.448Z,85.50
2018-03-24T06:03:05.634Z,85.40
2018-03-24T06:05:34.683Z,85.30
2018-03-24T06:08:02.927Z,85.30
2018-03-24T06:10:31.268Z,85.40
2018-03-24T06:12:59.701Z,85.40
2018-03-24T06:15:29.325Z,85.10
2018-03-24T06:17:57.573Z,85.00
2018-03-24T06:20:25.867Z,85.10
2018-03-24T06:22:54.135Z,84.90
2018-03-24T06:25:22.507Z,85.10
2018-03-24T06:27:50.895Z,85.00
2018-03-24T06:30:19.375Z,85.40
2018-03-24T06:32:47.637Z,85.40
2018-03-24T06:35:15.895Z,85.50
2018-03-24T06:37:44.180Z,85.40
2018-03-24T06:40:12.435Z,85.10
2018-03-24T06:42:40.712Z,84.90
2018-03-24T06:45:09.016Z,84.70
2018-03-24T06:47:37.444Z,84.40
2018-03-24T06:50:06.459Z,85.00
2018-03-24T06:52:34.805Z,84.10
2018-03-24T06:55:03.238Z,84.30
2018-03-24T06:57:31.503Z,84.10
2018-03-24T06:59:59.768Z,84.40
2018-03-24T07:02:28.051Z,84.20
2018-03-24T07:04:56.311Z,83.90
2018-03-24T07:07:24.583Z,83.60
2018-03-24T07:09:52.831Z,83.50
2018-03-24T07:12:21.120Z,83.40
2018-03-24T07:14:49.407Z,82.80
2018-03-24T07:17:17.636Z,82.90
2018-03-24T07:19:46.742Z,82.80
2018-03-24T07:22:15.023Z,82.60
2018-03-24T07:24:43.536Z,82.60
2018-03-24T07:27:11.784Z,82.50
2018-03-24T07:29:40.819Z,81.70
2018-03-24T07:32:09.104Z,81.70
2018-03-24T07:34:37.407Z,81.40
2018-03-24T07:37:05.675Z,80.40
2018-03-24T07:39:33.976Z,79.70
2018-03-24T07:42:03.013Z,79.90
2018-03-24T07:44:31.308Z,79.30
2018-03-24T07:46:59.583Z,79.00
2018-03-24T07:49:27.867Z,78.40
2018-03-24T07:51:56.125Z,78.60
2018-03-24T07:54:24.431Z,78.40
2018-03-24T07:56:52.810Z,78.10
2018-03-24T07:59:21.246Z,78.20
2018-03-24T08:01:50.240Z,78.00
2018-03-24T08:04:18.489Z,78.00
2018-03-24T08:06:46.771Z,77.10
2018-03-24T08:09:15.825Z,76.20
2018-03-24T08:11:44.107Z,76.20
2018-03-24T08:14:12.351Z,76.50
2018-03-24T08:16:40.624Z,77.20
2018-03-24T08:19:08.895Z,77.30
2018-03-24T08:21:37.162Z,77.20
2018-03-24T08:24:05.435Z,76.80
2018-03-24T08:26:33.699Z,76.70
2018-03-24T08:29:01.992Z,76.70
2018-03-24T08:31:30.492Z,77.30
2018-03-24T08:33:58.983Z,76.50
2018-03-24T08:36:28.116Z,77.10
2018-03-24T08:38:57.151Z,77.00
2018-03-24T08:41:25.444Z,76.90
2018-03-24T08:43:53.763Z,77.20
2018-03-24T08:46:22.038Z,77.50
2018-03-24T08:48:50.430Z,76.80
2018-03-24T08:51:18.840Z,76.70
2018-03-24T08:53:47.148Z,76.60
2018-03-24T08:56:16.175Z,75.70
2018-03-24T08:58:44.484Z,75.60
2018-03-24T09:01:12.759Z,74.60
2018-03-24T09:03:41.052Z,74.50
2018-03-24T09:06:09.486Z,74.40
2018-03-24T09:08:37.744Z,74.80
2018-03-24T09:11:06.124Z,73.30
2018-03-24T09:13:34.380Z,72.70
2018-03-24T09:16:02.632Z,72.10
2018-03-24T09:18:31.684Z,73.50
2018-03-24T09:20:59.963Z,73.50
2018-03-24T09:23:28.229Z,72.40
2018-03-24T09:25:56.498Z,71.30
2018-03-24T09:28:24.802Z,70.00
2018-03-24T09:30:53.016Z,68.70
2018-03-24T09:33:22.046Z,67.40
2018-03-24T09:35:50.383Z,65.40
2018-03-24T09:38:19.463Z,64.70
2018-03-24T09:40:48.528Z,65.70
2018-03-24T09:43:16.800Z,65.60
2018-03-24T09:45:45.143Z,63.50
2018-03-24T09:48:13.429Z,64.30
2018-03-24T09:50:41.739Z,64.20
2018-03-24T09:53:10.020Z,62.50
2018-03-24T09:55:38.300Z,62.80
2018-03-24T09:58:06.615Z,62.60
2018-03-24T10:00:35.155Z,60.80
2018-03-24T10:03:03.638Z,60.50
2018-03-24T10:05:31.911Z,60.00
2018-03-24T10:08:00.253Z,57.80
2018-03-24T10:10:28.535Z,58.50
2018-03-24T10:12:56.800Z,58.70
2018-03-24T10:15:25.063Z,59.40
2018-03-24T10:17:53.345Z,59.70
2018-03-24T10:20:21.599Z,59.30
2018-03-24T10:23:07.767Z,59.40
2018-03-24T10:25:36.090Z,59.10
2018-03-24T10:28:04.376Z,57.50
2018-03-24T10:30:32.669Z,57.10
2018-03-24T10:33:01.031Z,58.00
2018-03-24T10:35:29.297Z,57.50
2018-03-24T10:37:57.559Z,58.80
2018-03-24T10:40:25.823Z,58.40
2018-03-24T10:42:54.236Z,56.40
2018-03-24T10:45:22.536Z,56.90
2018-03-24T10:47:50.811Z,57.40
2018-03-24T10:50:19.915Z,57.30
2018-03-24T10:52:49.007Z,56.30
2018-03-24T10:55:18.048Z,55.90
2018-03-24T10:57:46.322Z,56.20
2018-03-24T11:00:14.611Z,56.70
2018-03-24T11:02:42.926Z,57.10
2018-03-24T11:05:11.251Z,56.40
2018-03-24T11:07:40.919Z,54.20
2018-03-24T11:10:09.976Z,54.70
2018-03-24T11:12:38.240Z,54.60
2018-03-24T11:15:06.549Z,54.60
2018-03-24T11:17:34.863Z,53.10
2018-03-24T11:20:03.159Z,53.30
2018-03-24T11:22:31.432Z,54.10
2018-03-24T11:24:59.742Z,52.70
2018-03-24T11:27:28.035Z,53.40
2018-03-24T11:29:56.279Z,52.90
2018-03-24T11:32:24.571Z,52.40
2018-03-24T11:34:52.867Z,52.80
2018-03-24T11:37:21.967Z,54.00
2018-03-24T11:39:50.197Z,53.90
2018-03-24T11:42:18.507Z,52.60
2018-03-24T11:44:48.382Z,51.50
2018-03-24T11:47:16.679Z,51.60
2018-03-24T11:49:44.937Z,51.70
2018-03-24T11:52:13.236Z,51.30
2018-03-24T11:54:43.410Z,50.80
2018-03-24T11:57:11.732Z,53.20
2018-03-24T11:59:40.771Z,50.60
2018-03-24T12:02:09.052Z,50.40
2018-03-24T12:04:37.315Z,50.60
2018-03-24T12:07:05.595Z,50.40
2018-03-24T12:09:33.863Z,50.40
2018-03-24T12:12:04.318Z,50.50
2018-03-24T12:14:32.840Z,51.00
2018-03-24T12:17:01.312Z,51.10
2018-03-24T12:19:31.088Z,52.20
2018-03-24T12:21:59.338Z,52.20
2018-03-24T12:24:27.631Z,52.50
2018-03-24T12:26:55.996Z,52.30
2018-03-24T12:29:24.284Z,52.20
2018-03-24T12:31:52.547Z,52.60
2018-03-24T12:34:20.834Z,50.70
2018-03-24T12:36:49.106Z,49.50
2018-03-24T12:39:17.407Z,48.70
2018-03-24T12:41:45.744Z,49.10
2018-03-24T12:44:14.028Z,50.10
2018-03-24T12:46:42.369Z,51.00
2018-03-24T12:49:12.143Z,50.20
2018-03-24T12:51:40.400Z,50.10
2018-03-24T12:54:08.715Z,49.30
2018-03-24T12:56:36.976Z,50.00
2018-03-24T12:59:05.282Z,47.40
2018-03-24T13:01:34.331Z,49.00
2018-03-24T13:04:02.607Z,48.90
2018-03-24T13:06:30.921Z,47.70
2018-03-24T13:08:59.949Z,48.90
2018-03-24T13:11:28.291Z,48.10
2018-03-24T13:13:57.336Z,47.50
2018-03-24T13:16:25.696Z,47.40
2018-03-24T13:18:53.972Z,47.20
2018-03-24T13:21:22.272Z,46.10
2018-03-24T13:23:50.519Z,47.10
2018-03-24T13:26:18.788Z,45.90
2018-03-24T13:28:47.083Z,47.10
2018-03-24T13:31:15.366Z,46.90
2018-03-24T13:33:43.655Z,46.00
2018-03-24T13:36:12.113Z,47.10
2018-03-24T13:38:40.408Z,47.50
2018-03-24T13:41:08.676Z,46.20
2018-03-24T13:43:37.096Z,47.10
2018-03-24T13:46:06.275Z,47.40
2018-03-24T13:48:35.419Z,47.30
2018-03-24T13:51:03.695Z,47.20
2018-03-24T13:53:32.011Z,46.50
2018-03-24T13:56:00.243Z,46.30
2018-03-24T13:58:28.528Z,46.50
2018-03-24T14:00:56.800Z,47.80
2018-03-24T14:03:25.076Z,47.10
2018-03-24T14:05:53.556Z,47.90
2018-03-24T14:08:21.875Z,47.60
2018-03-24T14:10:50.214Z,48.40
2018-03-24T14:13:18.636Z,49.00
2018-03-24T14:15:47.813Z,47.90
2018-03-24T14:18:16.059Z,47.70
2018-03-24T14:20:44.355Z,46.40
2018-03-24T14:23:12.619Z,45.90
2018-03-24T14:25:40.907Z,45.60
2018-03-24T14:28:10.696Z,45.90
2018-03-24T14:30:38.964Z,45.90
2018-03-24T14:33:08.155Z,47.20
2018-03-24T14:35:36.480Z,46.90
2018-03-24T14:38:04.735Z,47.60
2018-03-24T14:40:33.016Z,46.90
2018-03-24T14:43:01.622Z,46.60
2018-03-24T14:45:29.823Z,46.60
2018-03-24T14:47:58.080Z,46.90
2018-03-24T14:50:27.127Z,46.30
2018-03-24T14:52:55.379Z,46.30
2018-03-24T14:55:23.724Z,46.40
2018-03-24T14:57:52.836Z,45.50
2018-03-24T15:00:21.131Z,45.40
2018-03-24T15:02:49.381Z,45.70
2018-03-24T15:05:17.660Z,46.40
2018-03-24T15:07:46.111Z,46.10
2018-03-24T15:10:15.147Z,45.50
2018-03-24T15:12:43.456Z,45.50
2018-03-24T15:15:12.516Z,45.80
2018-03-24T15:17:40.827Z,45.80
2018-03-24T15:20:09.096Z,46.10
2018-03-24T15:22:37.599Z,45.10
2018-03-24T15:25:05.847Z,44.40
2018-03-24T15:27:34.140Z,45.10
2018-03-24T15:30:17.215Z,44.80
2018-03-24T15:32:51.511Z,45.10
2018-03-24T15:35:26.571Z,44.30
2018-03-24T15:37:54.844Z,44.30
2018-03-24T15:40:23.169Z,44.60
2018-03-24T15:42:51.458Z,45.00
2018-03-24T15:45:20.535Z,44.90
2018-03-24T15:47:48.854Z,44.90
2018-03-24T15:50:17.133Z,45.20
2018-03-24T15:52:45.563Z,44.90
2018-03-24T15:55:13.780Z,45.60
2018-03-24T15:57:42.067Z,46.50
2018-03-24T16:00:10.327Z,46.20
2018-03-24T16:02:38.619Z,46.80
2018-03-24T16:05:06.895Z,46.20
2018-03-24T16:07:35.144Z,46.60
2018-03-24T16:10:03.432Z,46.80
2018-03-24T16:12:31.700Z,47.30
2018-03-24T16:15:00.038Z,47.60
2018-03-24T16:17:28.325Z,46.70
2018-03-24T16:19:57.368Z,47.70
2018-03-24T16:22:25.640Z,47.60
2018-03-24T16:24:54.031Z,46.70
2018-03-24T16:27:22.279Z,46.60
2018-03-24T16:29:50.577Z,46.60
2018-03-24T16:32:18.824Z,47.70
2018-03-24T16:34:47.188Z,48.10
2018-03-24T16:37:15.572Z,48.80
2018-03-24T16:39:43.872Z,49.20
2018-03-24T16:42:12.168Z,48.80
2018-03-24T16:44:40.435Z,48.10
2018-03-24T16:47:08.728Z,48.60
2018-03-24T16:49:37.029Z,48.90
2018-03-24T16:52:05.388Z,49.50
2018-03-24T16:54:34.476Z,49.80
2018-03-24T16:57:02.769Z,49.70
2018-03-24T16:59:31.830Z,50.20
2018-03-24T17:02:00.108Z,50.20
2018-03-24T17:04:28.490Z,50.10
2018-03-24T17:06:56.776Z,50.10
2018-03-24T17:09:25.872Z,50.80
2018-03-24T17:11:54.151Z,50.70
2018-03-24T17:14:22.444Z,51.10
2018-03-24T17:16:50.743Z,51.00
2018-03-24T17:19:19.314Z,50.90
2018-03-24T17:21:47.558Z,51.30
2018-03-24T17:24:15.848Z,50.40
2018-03-24T17:26:44.862Z,51.10
2018-03-24T17:29:13.163Z,51.10
2018-03-24T17:31:41.487Z,51.30
2018-03-24T17:34:11.448Z,52.00
2018-03-24T17:36:39.805Z,52.10
2018-03-24T17:39:08.088Z,52.50
2018-03-24T17:41:36.387Z,52.80
2018-03-24T17:44:04.680Z,53.10
2018-03-24T17:46:34.457Z,53.40
2018-03-24T17:49:02.778Z,53.30
2018-03-24T17:51:31.072Z,53.60
2018-03-24T17:54:00.256Z,54.40
2018-03-24T17:56:28.498Z,54.10
2018-03-24T17:58:56.774Z,54.30
2018-03-24T18:01:25.935Z,54.30
2018-03-24T18:03:54.320Z,54.60
2018-03-24T18:06:22.667Z,54.60
2018-03-24T18:08:51.083Z,54.80
2018-03-24T18:11:19.500Z,54.80
2018-03-24T18:13:47.853Z,55.00
2018-03-24T18:16:16.223Z,55.60
2018-03-24T18:18:44.471Z,55.20
2018-03-24T18:21:12.752Z,55.10
2018-03-24T18:23:41.002Z,56.00
2018-03-24T18:26:10.065Z,56.30
2018-03-24T18:28:38.327Z,56.30
2018-03-24T18:31:06.584Z,56.60
2018-03-24T18:33:34.868Z,56.70
2018-03-24T18:36:03.143Z,56.80
2018-03-24T18:38:31.403Z,56.90
2018-03-24T18:40:59.671Z,57.10
2018-03-24T18:43:27.933Z,57.00
2018-03-24T18:45:56.991Z,57.20
2018-03-24T18:48:25.245Z,57.20
2018-03-24T18:50:53.509Z,57.50
2018-03-24T18:53:21.787Z,57.60
2018-03-24T18:55:50.196Z,58.30
2018-03-24T18:58:18.524Z,57.90
2018-03-24T19:00:46.788Z,58.10
2018-03-24T19:03:15.063Z,58.10
2018-03-24T19:05:43.407Z,58.30
2018-03-24T19:08:12.460Z,58.40
2018-03-24T19:10:40.744Z,58.30
2018-03-24T19:13:09.702Z,58.40
2018-03-24T19:15:38.509Z,58.50
2018-03-24T19:18:06.808Z,58.70
2018-03-24T19:20:36.592Z,58.80
2018-03-24T19:23:04.894Z,58.80
2018-03-24T19:25:33.180Z,58.90
2018-03-24T19:28:01.455Z,59.00
2018-03-24T19:30:29.746Z,59.90
2018-03-24T19:32:58.787Z,59.40
2018-03-24T19:35:27.113Z,59.40
2018-03-24T19:37:55.383Z,59.50
2018-03-24T19:40:23.686Z,59.50
2018-03-24T19:42:51.983Z,59.60
2018-03-24T19:45:20.268Z,59.60
2018-03-24T19:47:48.525Z,59.70
2018-03-24T19:50:16.808Z,59.90
2018-03-24T19:52:45.078Z,60.00
2018-03-24T19:55:13.512Z,60.00
2018-03-24T19:57:42.636Z,60.30
2018-03-24T20:00:10.838Z,60.20
2018-03-24T20:02:39.211Z,60.40
2018-03-24T20:05:07.460Z,60.50
2018-03-24T20:07:35.754Z,60.60
2018-03-24T20:10:04.028Z,60.90
2018-03-24T20:12:32.288Z,61.00
2018-03-24T20:15:00.673Z,61.20
2018-03-24T20:17:28.984Z,61.50
2018-03-24T20:19:57.491Z,61.80
2018-03-24T20:22:25.747Z,62.00
2018-03-24T20:24:54.019Z,62.00
2018-03-24T20:27:22.280Z,62.40
2018-03-24T20:29:50.562Z,62.50
2018-03-24T20:32:18.912Z,62.80
2018-03-24T20:34:47.179Z,63.00
2018-03-24T20:37:15.448Z,63.20
2018-03-24T20:39:43.751Z,63.30
2018-03-24T20:42:12.046Z,63.50
2018-03-24T20:44:40.311Z,63.70
2018-03-24T20:47:08.583Z,63.80
2018-03-24T20:49:36.926Z,64.20
2018-03-24T20:52:05.938Z,64.70
2018-03-24T20:54:34.228Z,64.60
2018-03-24T20:57:02.476Z,64.80
2018-03-24T20:59:30.763Z,65.10
2018-03-24T21:01:59.027Z,65.30
2018-03-24T21:04:27.314Z,65.40
2018-03-24T21:06:55.591Z,65.30
2018-03-24T21:09:23.876Z,65.30
2018-03-24T21:11:52.343Z,65.40
2018-03-24T21:14:20.758Z,65.60
2018-03-24T21:16:49.026Z,65.70
2018-03-24T21:19:17.288Z,66.00
2018-03-24T21:21:45.560Z,66.40
2018-03-24T21:24:13.825Z,66.40
2018-03-24T21:26:42.092Z,66.50
2018-03-24T21:29:11.200Z,66.80
2018-03-24T21:31:39.473Z,66.70
2018-03-24T21:34:09.603Z,67.10
2018-03-24T21:36:37.893Z,67.30
2018-03-24T21:39:06.124Z,67.30
2018-03-24T21:41:34.399Z,67.50
2018-03-24T21:44:02.639Z,67.80
2018-03-24T21:46:31.686Z,68.10
2018-03-24T21:48:59.931Z,68.10
2018-03-24T21:51:28.249Z,68.20
2018-03-24T21:53:56.504Z,68.50
2018-03-24T21:56:24.804Z,69.10
2018-03-24T21:58:53.141Z,69.00
2018-03-24T22:01:21.332Z,69.30
2018-03-24T22:03:49.612Z,69.50
2018-03-24T22:06:17.864Z,69.70
2018-03-24T22:08:46.389Z,69.90
2018-03-24T22:11:14.636Z,70.00
2018-03-24T22:13:42.989Z,71.20
2018-03-24T22:16:11.288Z,70.50
2018-03-24T22:18:39.528Z,70.60
2018-03-24T22:21:07.820Z,70.80
2018-03-24T22:23:36.071Z,70.90
2018-03-24T22:26:04.339Z,71.20
2018-03-24T22:28:32.641Z,71.30
2018-03-24T22:31:01.627Z,71.50
2018-03-24T22:33:29.891Z,71.50
2018-03-24T22:35:58.140Z,71.70
2018-03-24T22:38:27.205Z,72.00
2018-03-24T22:40:55.462Z,71.80
2018-03-24T22:43:23.727Z,72.20
2018-03-24T22:45:51.992Z,72.40
2018-03-24T22:48:20.429Z,72.70
2018-03-24T22:50:48.668Z,72.80
2018-03-24T22:53:16.953Z,72.80
2018-03-24T22:55:45.206Z,72.70
2018-03-24T22:58:13.505Z,72.80
2018-03-24T23:00:41.775Z,72.90
2018-03-24T23:03:10.042Z,73.10
2018-03-24T23:05:38.317Z,73.00
2018-03-24T23:08:06.567Z,73.20
2018-03-24T23:10:34.825Z,73.40
2018-03-24T23:13:03.123Z,73.50
2018-03-24T23:15:31.396Z,73.90
2018-03-24T23:17:59.624Z,73.90
2018-03-24T23:20:27.917Z,74.20
2018-03-24T23:22:57.012Z,74.20
2018-03-24T23:25:26.073Z,74.00
2018-03-24T23:27:54.341Z,74.00
2018-03-24T23:30:22.604Z,74.20
2018-03-24T23:32:50.872Z,74.30
2018-03-24T23:35:19.128Z,74.30
2018-03-24T23:37:47.399Z,74.50
2018-03-24T23:40:15.679Z,74.90
2018-03-24T23:42:43.967Z,75.00
2018-03-24T23:45:12.233Z,74.90
2018-03-24T23:47:40.517Z,75.00
2018-03-24T23:50:08.794Z,75.20
2018-03-24T23:52:37.063Z,75.30
2018-03-24T23:55:05.331Z,75.10
2018-03-24T23:57:33.613Z,75.00
